Terminal Aerodrome Forecast
Issued by NWS

Home | Current Version | Previous Version | Text Only | Print | Product List | Glossary On
Versions: 1 2 3 4 5 6 7 8 9 10 11 12 13 14 15
000
FTUS44 KTSA 251725
TAFXNA
TAF
KXNA 251725Z 2518/2618 18016G23KT P6SM SCT250
     FM260300 18010G18KT P6SM BKN050
      TEMPO 2606/2610 2SM TSRA OVC010CB
     FM261000 24009KT 4SM -SHRA VCTS OVC008CB=

USA.gov is the U.S. government's official web portal to all federal, state and local government web resources and services.